createdAt,value
2023-05-21T00:00:33.110Z,54.48
2023-05-21T00:03:00.419Z,54.27
2023-05-21T00:05:27.183Z,54.71
2023-05-21T00:07:55.004Z,54.70
2023-05-21T00:10:22.007Z,54.92
2023-05-21T00:12:48.815Z,54.46
2023-05-21T00:15:15.625Z,55.13
2023-05-21T00:17:43.618Z,55.01
2023-05-21T00:20:10.830Z,54.98
2023-05-21T00:22:37.557Z,55.15
2023-05-21T00:25:04.988Z,55.11
2023-05-21T00:27:32.034Z,55.41
2023-05-21T00:29:58.875Z,55.06
2023-05-21T00:32:26.285Z,55.43
2023-05-21T00:34:53.198Z,54.92
2023-05-21T00:37:20.864Z,55.52
2023-05-21T00:39:47.640Z,54.99
2023-05-21T00:42:18.151Z,55.14
2023-05-21T00:44:45.632Z,55.11
2023-05-21T00:47:18.399Z,55.33
2023-05-21T00:49:45.296Z,55.63
2023-05-21T00:52:12.216Z,55.64
2023-05-21T00:54:39.475Z,55.78
2023-05-21T00:57:06.600Z,55.76
2023-05-21T00:59:33.988Z,55.70
2023-05-21T01:02:04.204Z,56.29
2023-05-21T01:04:32.213Z,56.16
2023-05-21T01:06:59.019Z,55.89
2023-05-21T01:09:27.181Z,56.22
2023-05-21T01:11:55.816Z,56.15
2023-05-21T01:14:24.192Z,56.30
2023-05-21T01:16:52.933Z,56.01
2023-05-21T01:19:21.960Z,56.21
2023-05-21T01:22:04.375Z,56.44
2023-05-21T01:24:31.431Z,56.34
2023-05-21T01:27:00.931Z,56.59
2023-05-21T01:29:27.638Z,56.32
2023-05-21T01:32:05.246Z,57.41
2023-05-21T01:35:08.338Z,57.11
2023-05-21T01:37:41.670Z,56.92
2023-05-21T01:40:24.873Z,56.77
2023-05-21T01:42:53.256Z,56.71
2023-05-21T01:45:22.714Z,57.30
2023-05-21T01:47:55.069Z,57.09
2023-05-21T01:50:24.608Z,56.91
2023-05-21T01:53:01.299Z,57.01
2023-05-21T01:55:30.711Z,56.93
2023-05-21T01:57:59.996Z,57.50
2023-05-21T02:00:29.526Z,57.47
2023-05-21T02:02:57.380Z,57.11
2023-05-21T02:05:24.441Z,57.15
2023-05-21T02:07:52.197Z,57.33
2023-05-21T02:10:19.340Z,57.66
2023-05-21T02:12:46.410Z,57.58
2023-05-21T02:15:18.114Z,57.82
2023-05-21T02:17:48.290Z,57.59
2023-05-21T02:20:15.692Z,57.38
2023-05-21T02:22:45.079Z,57.84
2023-05-21T02:25:13.424Z,57.91
2023-05-21T02:27:42.458Z,57.68
2023-05-21T02:30:12.026Z,57.57
2023-05-21T02:32:43.038Z,57.37
2023-05-21T02:35:12.136Z,57.69
2023-05-21T02:37:40.522Z,57.55
2023-05-21T02:40:09.791Z,58.03
2023-05-21T02:42:39.796Z,58.15
2023-05-21T02:45:11.729Z,57.46
2023-05-21T02:47:41.515Z,57.69
2023-05-21T02:50:09.530Z,58.05
2023-05-21T02:52:43.715Z,57.71
2023-05-21T02:55:10.710Z,58.14
2023-05-21T02:57:37.580Z,58.26
2023-05-21T03:00:06.175Z,58.14
2023-05-21T03:02:33.847Z,58.31
2023-05-21T03:05:00.815Z,57.93
2023-05-21T03:07:27.633Z,57.88
2023-05-21T03:09:54.806Z,57.78
2023-05-21T03:12:21.750Z,57.87
2023-05-21T03:14:51.438Z,58.28
2023-05-21T03:17:20.742Z,58.41
2023-05-21T03:19:49.126Z,58.41
2023-05-21T03:22:16.212Z,58.57
2023-05-21T03:24:45.169Z,58.58
2023-05-21T03:27:12.351Z,58.72
2023-05-21T03:29:40.041Z,58.88
2023-05-21T03:32:08.020Z,58.75
2023-05-21T03:34:35.625Z,58.69
2023-05-21T03:37:03.036Z,58.74
2023-05-21T03:39:30.432Z,58.80
2023-05-21T03:41:57.721Z,59.00
2023-05-21T03:44:59.938Z,58.69
2023-05-21T03:47:38.867Z,58.86
2023-05-21T03:50:09.298Z,58.70
2023-05-21T03:52:36.304Z,59.20
2023-05-21T03:55:03.314Z,59.17
2023-05-21T03:57:30.178Z,59.28
2023-05-21T03:59:59.015Z,59.20
2023-05-21T04:02:27.551Z,59.33
2023-05-21T04:04:56.053Z,58.93
2023-05-21T04:07:24.242Z,59.35
2023-05-21T04:09:50.994Z,59.35
2023-05-21T04:12:21.592Z,59.51
2023-05-21T04:14:48.463Z,59.08
2023-05-21T04:17:15.200Z,59.43
2023-05-21T04:19:42.787Z,59.46
2023-05-21T04:22:12.096Z,59.82
2023-05-21T04:24:39.388Z,59.96
2023-05-21T04:27:14.048Z,59.44
2023-05-21T04:29:43.807Z,59.62
2023-05-21T04:32:11.706Z,59.58
2023-05-21T04:34:40.008Z,59.18
2023-05-21T04:37:07.062Z,59.49
2023-05-21T04:39:34.842Z,59.26
2023-05-21T04:42:03.194Z,59.09
2023-05-21T04:44:30.183Z,59.20
2023-05-21T04:46:58.818Z,59.53
2023-05-21T04:49:25.739Z,58.92
2023-05-21T04:51:52.667Z,58.74
2023-05-21T04:54:20.299Z,58.84
2023-05-21T04:56:47.508Z,58.52
2023-05-21T04:59:14.967Z,58.47
2023-05-21T05:01:44.059Z,58.77
2023-05-21T05:04:10.966Z,58.56
2023-05-21T05:06:37.714Z,58.22
2023-05-21T05:09:05.574Z,58.63
2023-05-21T05:11:32.362Z,58.37
2023-05-21T05:13:59.250Z,58.26
2023-05-21T05:16:26.340Z,57.79
2023-05-21T05:18:56.192Z,58.04
2023-05-21T05:21:23.918Z,58.21
2023-05-21T05:23:50.672Z,57.91
2023-05-21T05:26:18.133Z,57.88
2023-05-21T05:28:45.942Z,58.28
2023-05-21T05:31:12.783Z,57.80
2023-05-21T05:33:41.032Z,57.84
2023-05-21T05:36:08.253Z,57.73
2023-05-21T05:38:36.065Z,58.36
2023-05-21T05:41:02.902Z,58.00
2023-05-21T05:43:29.778Z,58.59
2023-05-21T05:45:58.573Z,58.20
2023-05-21T05:48:25.414Z,58.47
2023-05-21T05:50:54.728Z,58.15
2023-05-21T05:53:23.596Z,58.50
2023-05-21T05:55:50.494Z,58.11
2023-05-21T05:58:17.344Z,57.93
2023-05-21T06:00:53.317Z,58.04
2023-05-21T06:03:20.114Z,57.82
2023-05-21T06:05:48.025Z,58.00
2023-05-21T06:08:15.005Z,57.48
2023-05-21T06:10:41.741Z,57.39
2023-05-21T06:13:09.083Z,57.01
2023-05-21T06:15:36.248Z,56.68
2023-05-21T06:18:03.387Z,56.64
2023-05-21T06:20:30.481Z,56.09
2023-05-21T06:22:57.245Z,56.22
2023-05-21T06:25:25.745Z,56.63
2023-05-21T06:27:52.569Z,56.50
2023-05-21T06:30:24.251Z,55.77
2023-05-21T06:32:51.110Z,55.52
2023-05-21T06:35:18.018Z,54.90
2023-05-21T06:37:45.150Z,54.63
2023-05-21T06:40:12.429Z,53.53
2023-05-21T06:42:40.393Z,52.98
2023-05-21T06:45:36.675Z,52.19
2023-05-21T06:48:15.960Z,51.51
2023-05-21T06:50:43.918Z,50.84
2023-05-21T06:53:10.744Z,50.29
2023-05-21T06:55:38.029Z,50.26
2023-05-21T06:58:18.364Z,50.18
2023-05-21T07:00:45.131Z,49.58
2023-05-21T07:03:12.461Z,48.72
2023-05-21T07:05:39.640Z,48.91
2023-05-21T07:08:06.709Z,48.68
2023-05-21T07:10:34.561Z,48.23
2023-05-21T07:13:01.377Z,47.57
2023-05-21T07:15:28.803Z,47.68
2023-05-21T07:17:55.598Z,47.01
2023-05-21T07:20:22.407Z,46.45
2023-05-21T07:22:51.863Z,46.60
2023-05-21T07:25:18.709Z,46.07
2023-05-21T07:27:45.494Z,45.68
2023-05-21T07:30:12.737Z,45.51
2023-05-21T07:32:39.470Z,45.19
2023-05-21T07:35:07.151Z,43.99
2023-05-21T07:37:34.813Z,43.05
2023-05-21T07:40:01.996Z,42.03
2023-05-21T07:42:31.166Z,40.63
2023-05-21T07:44:58.325Z,40.59
2023-05-21T07:47:27.065Z,40.85
2023-05-21T07:49:54.024Z,40.84
2023-05-21T07:52:21.178Z,41.11
2023-05-21T07:54:48.058Z,41.37
2023-05-21T07:57:15.235Z,41.83
2023-05-21T07:59:56.469Z,42.31
2023-05-21T08:02:23.999Z,41.90
2023-05-21T08:04:52.622Z,41.83
2023-05-21T08:07:20.296Z,40.49
2023-05-21T08:09:47.146Z,39.50
2023-05-21T08:12:17.074Z,38.98
2023-05-21T08:14:44.085Z,38.02
2023-05-21T08:17:12.731Z,37.75
2023-05-21T08:19:39.728Z,34.54
2023-05-21T08:22:07.107Z,29.09
2023-05-21T08:24:35.858Z,25.91
2023-05-21T08:27:02.743Z,23.07
2023-05-21T08:29:31.813Z,21.72
2023-05-21T08:31:59.640Z,21.17
2023-05-21T08:34:26.885Z,19.40
2023-05-21T08:37:13.768Z,19.58
2023-05-21T08:39:59.467Z,20.29
2023-05-21T08:42:43.419Z,20.53
2023-05-21T08:45:16.993Z,20.96
2023-05-21T08:47:44.838Z,21.15
2023-05-21T08:50:19.452Z,21.01
2023-05-21T08:52:47.214Z,20.62
2023-05-21T08:55:14.905Z,19.41
2023-05-21T08:57:44.062Z,19.99
2023-05-21T09:00:14.222Z,19.22
2023-05-21T09:02:43.999Z,18.75
2023-05-21T09:05:12.331Z,19.09
2023-05-21T09:08:06.988Z,19.47
2023-05-21T09:10:48.495Z,20.00
2023-05-21T09:13:17.406Z,20.24
2023-05-21T09:15:46.343Z,20.18
2023-05-21T09:18:14.900Z,20.95
2023-05-21T09:20:56.735Z,21.84
2023-05-21T09:23:29.034Z,22.05
2023-05-21T09:25:56.073Z,22.71
2023-05-21T09:28:33.243Z,22.61
2023-05-21T09:31:06.870Z,21.40
2023-05-21T09:33:51.773Z,21.03
2023-05-21T09:36:20.834Z,20.00
2023-05-21T09:38:49.777Z,17.79
2023-05-21T09:41:21.599Z,16.89
2023-05-21T09:43:49.276Z,16.37
2023-05-21T09:46:25.047Z,14.75
2023-05-21T09:48:52.045Z,14.41
2023-05-21T09:51:21.335Z,13.71
2023-05-21T09:53:55.073Z,13.76
2023-05-21T09:56:27.113Z,11.93
2023-05-21T09:59:02.027Z,12.08
2023-05-21T10:01:31.599Z,10.95
2023-05-21T10:03:59.951Z,10.83
2023-05-21T10:06:31.857Z,10.57
2023-05-21T10:09:04.727Z,11.29
2023-05-21T10:11:36.652Z,11.04
2023-05-21T10:14:09.418Z,11.17
2023-05-21T10:16:37.485Z,11.33
2023-05-21T10:19:06.044Z,10.28
2023-05-21T10:21:36.252Z,10.57
2023-05-21T10:24:04.339Z,9.79
2023-05-21T10:26:31.495Z,9.44
2023-05-21T10:29:01.288Z,8.96
2023-05-21T10:31:28.777Z,8.36
2023-05-21T10:33:56.536Z,8.82
2023-05-21T10:36:29.921Z,8.48
2023-05-21T10:38:58.526Z,8.27
2023-05-21T10:41:28.389Z,8.25
2023-05-21T10:44:13.277Z,7.71
2023-05-21T10:47:05.465Z,7.38
2023-05-21T10:49:55.975Z,7.83
2023-05-21T10:52:36.503Z,7.27
2023-05-21T10:55:06.469Z,7.01
2023-05-21T10:57:55.023Z,6.26
2023-05-21T11:00:22.382Z,6.52
2023-05-21T11:02:51.967Z,6.43
2023-05-21T11:05:55.369Z,7.10
2023-05-21T11:08:31.856Z,7.17
2023-05-21T11:10:59.513Z,6.90
2023-05-21T11:13:27.363Z,6.93
2023-05-21T11:16:01.403Z,6.58
2023-05-21T11:18:34.179Z,7.08
2023-05-21T11:21:10.137Z,7.41
2023-05-21T11:23:49.402Z,7.68
2023-05-21T11:26:30.571Z,7.91
2023-05-21T11:29:03.445Z,7.91
2023-05-21T11:31:38.113Z,8.42
2023-05-21T11:34:16.274Z,8.42
2023-05-21T11:36:47.910Z,8.48
2023-05-21T11:39:22.034Z,9.31
2023-05-21T11:42:04.158Z,10.08
2023-05-21T11:44:45.928Z,9.82
2023-05-21T11:47:21.195Z,10.36
2023-05-21T11:49:48.192Z,10.73
2023-05-21T11:52:15.808Z,11.50
2023-05-21T11:54:46.556Z,11.91
2023-05-21T11:57:17.211Z,12.34
2023-05-21T11:59:45.250Z,12.91
2023-05-21T12:02:18.847Z,12.93
2023-05-21T12:04:48.417Z,13.15
2023-05-21T12:07:19.089Z,15.49
2023-05-21T12:09:50.554Z,17.36
2023-05-21T12:12:19.378Z,18.52
2023-05-21T12:14:51.832Z,19.11
2023-05-21T12:17:20.225Z,20.12
2023-05-21T12:19:48.333Z,20.90
2023-05-21T12:22:17.509Z,21.54
2023-05-21T12:24:45.289Z,21.45
2023-05-21T12:27:13.749Z,21.81
2023-05-21T12:29:44.303Z,22.11
2023-05-21T12:32:13.036Z,22.62
2023-05-21T12:34:40.812Z,22.12
2023-05-21T12:37:08.145Z,22.64
2023-05-21T12:39:39.595Z,22.59
2023-05-21T12:42:07.121Z,23.34
2023-05-21T12:44:36.032Z,23.24
2023-05-21T12:47:03.848Z,23.10
2023-05-21T12:49:33.850Z,22.89
2023-05-21T12:52:03.125Z,23.44
2023-05-21T12:54:35.116Z,24.19
2023-05-21T12:57:09.013Z,23.85
2023-05-21T12:59:49.956Z,23.50
2023-05-21T13:02:21.551Z,23.97
2023-05-21T13:04:49.746Z,24.10
2023-05-21T13:07:18.612Z,23.58
2023-05-21T13:09:46.056Z,23.36
2023-05-21T13:12:13.339Z,23.08
2023-05-21T13:14:40.351Z,23.38
2023-05-21T13:17:07.711Z,23.24
2023-05-21T13:19:34.767Z,23.54
2023-05-21T13:22:01.706Z,23.73
2023-05-21T13:24:28.457Z,23.44
2023-05-21T13:26:55.293Z,23.42
2023-05-21T13:29:22.338Z,22.72
2023-05-21T13:31:49.178Z,23.21
2023-05-21T13:34:16.030Z,22.83
2023-05-21T13:36:42.827Z,23.32
2023-05-21T13:39:09.532Z,23.40
2023-05-21T13:41:36.315Z,23.63
2023-05-21T13:44:02.957Z,23.99
2023-05-21T13:46:29.758Z,23.54
2023-05-21T13:48:56.753Z,23.98
2023-05-21T13:51:38.051Z,23.85
2023-05-21T13:54:05.641Z,24.57
2023-05-21T13:56:33.847Z,24.05
2023-05-21T13:59:01.568Z,24.75
2023-05-21T14:01:28.482Z,25.11
2023-05-21T14:03:55.393Z,24.61
2023-05-21T14:06:22.093Z,25.62
2023-05-21T14:08:48.975Z,24.73
2023-05-21T14:11:15.780Z,25.60
2023-05-21T14:13:43.338Z,25.15
2023-05-21T14:16:10.298Z,25.15
2023-05-21T14:18:38.137Z,25.58
2023-05-21T14:21:04.946Z,26.14
2023-05-21T14:23:31.678Z,25.53
2023-05-21T14:25:58.459Z,25.81
2023-05-21T14:28:25.134Z,25.78
2023-05-21T14:30:51.830Z,24.84
2023-05-21T14:33:18.622Z,24.52
2023-05-21T14:35:45.372Z,24.51
2023-05-21T14:38:12.205Z,26.28
2023-05-21T14:40:38.935Z,25.60
2023-05-21T14:43:06.411Z,25.20
2023-05-21T14:45:35.561Z,24.55
2023-05-21T14:48:08.216Z,25.95
2023-05-21T14:50:36.162Z,26.03
2023-05-21T14:53:06.607Z,24.97
2023-05-21T14:55:36.950Z,25.42
2023-05-21T14:58:07.480Z,26.48
2023-05-21T15:00:35.508Z,26.44
2023-05-21T15:03:02.934Z,26.12
2023-05-21T15:05:29.748Z,25.87
2023-05-21T15:07:57.444Z,25.44
2023-05-21T15:10:26.430Z,25.63
2023-05-21T15:12:53.855Z,25.20
2023-05-21T15:15:21.034Z,25.79
2023-05-21T15:17:48.856Z,25.75
2023-05-21T15:20:16.119Z,25.61
2023-05-21T15:22:42.928Z,25.68
2023-05-21T15:25:10.668Z,25.72
2023-05-21T15:27:37.519Z,26.32
2023-05-21T15:30:04.816Z,26.61
2023-05-21T15:32:32.247Z,26.82
2023-05-21T15:34:59.185Z,26.16
2023-05-21T15:37:26.621Z,26.08
2023-05-21T15:39:54.084Z,25.22
2023-05-21T15:42:20.921Z,25.55
2023-05-21T15:44:48.189Z,25.58
2023-05-21T15:47:16.359Z,25.69
2023-05-21T15:49:43.367Z,25.48
2023-05-21T15:52:10.084Z,25.43
2023-05-21T15:54:36.795Z,25.87
2023-05-21T15:57:03.620Z,26.11
2023-05-21T15:59:30.366Z,25.88
2023-05-21T16:01:57.258Z,26.19
2023-05-21T16:04:24.965Z,26.14
2023-05-21T16:06:51.706Z,26.91
2023-05-21T16:09:18.492Z,26.76
2023-05-21T16:11:45.317Z,26.79
2023-05-21T16:14:12.590Z,26.77
2023-05-21T16:16:39.443Z,26.56
2023-05-21T16:19:06.228Z,26.82
2023-05-21T16:21:33.080Z,26.72
2023-05-21T16:24:00.219Z,26.62
2023-05-21T16:26:27.059Z,26.46
2023-05-21T16:28:54.045Z,27.54
2023-05-21T16:31:21.251Z,27.52
2023-05-21T16:33:48.277Z,27.73
2023-05-21T16:36:16.929Z,27.15
2023-05-21T16:38:44.876Z,27.58
2023-05-21T16:41:11.713Z,28.01
2023-05-21T16:43:38.537Z,28.29
2023-05-21T16:46:05.771Z,28.21
2023-05-21T16:48:32.844Z,27.69
2023-05-21T16:51:00.102Z,27.90
2023-05-21T16:53:27.446Z,27.46
2023-05-21T16:55:54.166Z,28.07
2023-05-21T16:58:20.952Z,27.38
2023-05-21T17:00:48.951Z,27.24
2023-05-21T17:03:16.010Z,27.63
2023-05-21T17:05:42.902Z,27.62
2023-05-21T17:08:09.856Z,27.49
2023-05-21T17:10:36.689Z,27.58
2023-05-21T17:13:20.644Z,27.76
2023-05-21T17:15:48.718Z,28.71
2023-05-21T17:18:15.724Z,28.36
2023-05-21T17:20:43.768Z,28.14
2023-05-21T17:23:12.020Z,29.10
2023-05-21T17:25:39.758Z,29.05
2023-05-21T17:28:07.364Z,29.09
2023-05-21T17:30:34.285Z,29.13
2023-05-21T17:33:03.711Z,28.46
2023-05-21T17:35:30.701Z,29.36
2023-05-21T17:37:57.666Z,28.46
2023-05-21T17:40:25.099Z,29.07
2023-05-21T17:42:52.846Z,29.43
2023-05-21T17:45:20.155Z,28.78
2023-05-21T17:47:47.115Z,29.21
2023-05-21T17:50:14.617Z,29.25
2023-05-21T17:52:41.526Z,28.94
2023-05-21T17:55:08.794Z,29.02
2023-05-21T17:57:36.081Z,29.64
2023-05-21T18:00:05.117Z,29.31
2023-05-21T18:02:38.848Z,29.50
2023-05-21T18:05:05.697Z,29.90
2023-05-21T18:07:32.557Z,30.47
2023-05-21T18:09:59.510Z,30.78
2023-05-21T18:12:26.280Z,30.55
2023-05-21T18:14:53.379Z,30.50
2023-05-21T18:17:20.282Z,30.28
2023-05-21T18:19:47.030Z,30.00
2023-05-21T18:22:13.831Z,30.23
2023-05-21T18:24:40.685Z,29.92
2023-05-21T18:27:07.461Z,30.23
2023-05-21T18:29:34.236Z,30.94
2023-05-21T18:32:01.092Z,30.88
2023-05-21T18:34:27.934Z,31.72
2023-05-21T18:36:54.687Z,32.14
2023-05-21T18:39:24.796Z,31.73
2023-05-21T18:42:01.528Z,31.54
2023-05-21T18:44:38.938Z,31.28
2023-05-21T18:47:09.843Z,30.97
2023-05-21T18:49:36.753Z,31.24
2023-05-21T18:52:06.325Z,31.61
2023-05-21T18:54:33.194Z,31.56
2023-05-21T18:57:00.617Z,31.77
2023-05-21T18:59:28.500Z,32.61
2023-05-21T19:01:55.579Z,32.44
2023-05-21T19:04:22.632Z,31.79
2023-05-21T19:06:49.389Z,32.35
2023-05-21T19:09:16.231Z,32.45
2023-05-21T19:11:43.121Z,32.68
2023-05-21T19:14:09.922Z,32.50
2023-05-21T19:16:36.817Z,32.78
2023-05-21T19:19:04.528Z,33.42
2023-05-21T19:21:31.591Z,33.27
2023-05-21T19:23:59.043Z,33.65
2023-05-21T19:26:25.840Z,33.94
2023-05-21T19:28:55.647Z,34.42
2023-05-21T19:31:23.614Z,34.96
2023-05-21T19:33:50.741Z,34.70
2023-05-21T19:36:18.974Z,35.21
2023-05-21T19:38:48.931Z,35.12
2023-05-21T19:41:20.034Z,36.10
2023-05-21T19:43:47.057Z,35.87
2023-05-21T19:46:16.105Z,36.47
2023-05-21T19:48:45.938Z,36.44
2023-05-21T19:51:15.814Z,36.70
2023-05-21T19:53:42.734Z,37.26
2023-05-21T19:56:09.488Z,36.84
2023-05-21T19:58:36.859Z,37.54
2023-05-21T20:01:03.785Z,37.75
2023-05-21T20:03:35.898Z,38.32
2023-05-21T20:06:03.637Z,38.67
2023-05-21T20:08:32.101Z,38.55
2023-05-21T20:10:59.040Z,39.06
2023-05-21T20:13:25.855Z,38.73
2023-05-21T20:15:52.644Z,38.74
2023-05-21T20:18:22.309Z,38.88
2023-05-21T20:20:49.277Z,38.77
2023-05-21T20:23:16.007Z,38.86
2023-05-21T20:25:43.052Z,38.88
2023-05-21T20:28:09.797Z,39.15
2023-05-21T20:30:53.561Z,39.47
2023-05-21T20:33:20.589Z,39.58
2023-05-21T20:35:47.339Z,39.74
2023-05-21T20:38:16.188Z,39.94
2023-05-21T20:40:44.515Z,40.45
2023-05-21T20:43:12.520Z,40.03
2023-05-21T20:45:41.191Z,39.98
2023-05-21T20:48:09.991Z,40.06
2023-05-21T20:50:37.474Z,40.15
2023-05-21T20:53:04.826Z,40.46
2023-05-21T20:55:34.715Z,41.01
2023-05-21T20:58:02.953Z,40.78
2023-05-21T21:00:31.778Z,40.59
2023-05-21T21:03:01.200Z,40.97
2023-05-21T21:05:28.403Z,40.71
2023-05-21T21:07:56.015Z,40.40
2023-05-21T21:10:23.198Z,40.54
2023-05-21T21:12:50.042Z,41.21
2023-05-21T21:15:17.353Z,41.02
2023-05-21T21:17:44.307Z,41.24
2023-05-21T21:20:12.964Z,41.09
2023-05-21T21:22:39.819Z,40.88
2023-05-21T21:25:06.953Z,41.14
2023-05-21T21:27:34.070Z,41.17
2023-05-21T21:30:02.765Z,41.37
2023-05-21T21:32:29.504Z,41.36
2023-05-21T21:34:56.393Z,41.66
2023-05-21T21:37:23.260Z,41.83
2023-05-21T21:39:51.114Z,41.96
2023-05-21T21:42:17.964Z,42.42
2023-05-21T21:44:44.773Z,42.05
2023-05-21T21:47:11.864Z,42.86
2023-05-21T21:49:38.629Z,42.80
2023-05-21T21:52:07.111Z,42.79
2023-05-21T21:54:34.548Z,43.17
2023-05-21T21:57:01.524Z,43.08
2023-05-21T21:59:28.387Z,43.36
2023-05-21T22:01:55.834Z,43.38
2023-05-21T22:04:22.657Z,43.66
2023-05-21T22:06:50.070Z,43.32
2023-05-21T22:09:17.622Z,43.65
2023-05-21T22:11:44.430Z,43.18
2023-05-21T22:14:14.729Z,43.62
2023-05-21T22:16:48.954Z,43.67
2023-05-21T22:19:18.114Z,43.53
2023-05-21T22:21:46.449Z,44.05
2023-05-21T22:24:30.320Z,44.05
2023-05-21T22:26:59.524Z,44.40
2023-05-21T22:29:29.249Z,44.53
2023-05-21T22:31:56.417Z,44.08
2023-05-21T22:34:25.213Z,44.83
2023-05-21T22:36:54.537Z,45.10
2023-05-21T22:39:22.071Z,45.10
2023-05-21T22:41:49.014Z,45.38
2023-05-21T22:44:16.206Z,45.60
2023-05-21T22:46:43.836Z,45.68
2023-05-21T22:49:10.774Z,45.49
2023-05-21T22:51:39.505Z,45.65
2023-05-21T22:54:07.103Z,46.09
2023-05-21T22:56:34.073Z,45.74
2023-05-21T22:59:00.846Z,45.74
2023-05-21T23:01:27.798Z,45.97
2023-05-21T23:03:54.640Z,45.80
2023-05-21T23:06:21.514Z,45.87
2023-05-21T23:08:48.316Z,46.37
2023-05-21T23:11:15.213Z,46.59
2023-05-21T23:13:42.167Z,46.25
2023-05-21T23:16:08.958Z,46.86
2023-05-21T23:18:36.090Z,46.26
2023-05-21T23:21:03.983Z,46.97
2023-05-21T23:23:31.289Z,47.21
2023-05-21T23:25:59.762Z,46.94
2023-05-21T23:28:26.733Z,47.37
2023-05-21T23:30:54.825Z,47.35
2023-05-21T23:33:21.616Z,47.12
2023-05-21T23:35:48.829Z,47.25
2023-05-21T23:38:15.618Z,47.49
2023-05-21T23:40:42.558Z,47.51
2023-05-21T23:43:09.524Z,47.75
2023-05-21T23:45:36.431Z,47.84
2023-05-21T23:48:03.566Z,47.91
2023-05-21T23:50:30.662Z,48.14
2023-05-21T23:52:58.260Z,48.24
2023-05-21T23:55:25.385Z,48.14
2023-05-21T23:57:54.951Z,48.27
